LFKA weather

Albertville Airport
Albertville, Rhône Alpes, France

Public forecast

Using degrees Celsius for public forecast. Weather courtesy of forecast.io.

METAR (pilot weather report)

Closest report is Chambéry-Savoie Airport, 18.9 nm (35.0 km) W. Retrieved 2019/09/19 20:30 UTC (0 seconds ago):

LFLB 192030Z AUTO 36012KT CAVOK 17/06 Q1022

TAF (pilot weather forecast)

Closest forecast is Chambéry-Savoie Airport, 18.9 nm (35.0 km) W. Retrieved 2019/09/19 19:07 UTC (1 hour ago):

TAF LFLB 191900Z 1919/2012 CNL